Time;durP1;ratioP1;P1;durP2;ratioP2;P2;SDS_P1;SDS_P2;PMS_P1;PMS_P2;Temp;Humidity;BMP_temperature;BMP_pressure;BME280_temperature;BME280_humidity;BME280_pressure;Samples;Min_cycle;Max_cycle;Signal;HPM_P1;HPM_P2
2023/01/03 00:01:28;;;;;;;21.45;9.70;;;;;;;;;;6339249;22;20019;-80
2023/01/03 00:03:55;;;;;;;22.13;10.40;;;;;;;;;;6338840;22;20046;-82
2023/01/03 00:06:26;;;;;;;21.55;10.63;;;;;;;;;;6338247;22;20098;-82
2023/01/03 00:08:53;;;;;;;25.73;9.52;;;;;;;;;;6340063;22;20027;-82
2023/01/03 00:14:07;;;;;;;21.73;9.90;;;;;;;;;;6339801;22;20028;-83
2023/01/03 00:16:34;;;;;;;24.08;9.98;;;;;;;;;;6337473;22;20825;-80
2023/01/03 00:19:04;;;;;;;21.55;10.15;;;;;;;;;;6312892;22;20471;-80
2023/01/03 00:21:30;;;;;;;22.97;9.83;;;;;;;;;;6339491;22;20462;-80
2023/01/03 00:24:00;;;;;;;25.25;10.75;;;;;;;;;;6340509;22;20270;-80
2023/01/03 00:26:27;;;;;;;26.98;11.30;;;;;;;;;;6339924;22;20969;-82
2023/01/03 00:28:53;;;;;;;28.63;11.30;;;;;;;;;;6340516;22;20031;-82
2023/01/03 00:31:19;;;;;;;23.20;10.82;;;;;;;;;;6338617;22;20049;-82
2023/01/03 00:33:46;;;;;;;26.30;10.52;;;;;;;;;;6340728;22;20061;-82
2023/01/03 00:36:13;;;;;;;26.40;9.75;;;;;;;;;;6340634;22;20027;-82
2023/01/03 00:38:39;;;;;;;16.63;8.25;;;;;;;;;;6339982;22;20023;-82
2023/01/03 00:41:09;;;;;;;17.60;8.25;;;;;;;;;;6339918;22;20024;-82
2023/01/03 00:43:36;;;;;;;18.08;8.65;;;;;;;;;;6339064;22;20027;-82
2023/01/03 00:46:03;;;;;;;21.77;8.98;;;;;;;;;;6338685;22;20023;-82
2023/01/03 00:48:29;;;;;;;21.55;9.38;;;;;;;;;;6311674;22;20081;-82
2023/01/03 00:50:56;;;;;;;21.20;8.40;;;;;;;;;;6338196;22;20031;-82
2023/01/03 00:53:22;;;;;;;19.80;9.18;;;;;;;;;;6339337;22;20081;-82
2023/01/03 00:55:52;;;;;;;19.75;9.35;;;;;;;;;;6311337;22;20089;-82
2023/01/03 00:58:18;;;;;;;22.23;10.55;;;;;;;;;;6338439;22;20023;-82
2023/01/03 01:00:45;;;;;;;22.15;9.02;;;;;;;;;;6338007;22;20051;-82
2023/01/03 01:03:11;;;;;;;22.80;9.65;;;;;;;;;;6339226;22;20011;-82
2023/01/03 01:05:37;;;;;;;20.58;9.13;;;;;;;;;;6338474;22;20023;-82
2023/01/03 01:08:04;;;;;;;20.27;9.77;;;;;;;;;;6339082;22;20031;-82
2023/01/03 01:10:30;;;;;;;29.27;11.03;;;;;;;;;;6338671;22;20082;-82
2023/01/03 01:12:56;;;;;;;22.95;9.90;;;;;;;;;;6339318;22;20099;-82
2023/01/03 01:15:23;;;;;;;21.95;10.52;;;;;;;;;;6311107;22;20058;-82
2023/01/03 01:17:49;;;;;;;26.88;10.77;;;;;;;;;;6338514;22;20019;-82
2023/01/03 01:20:16;;;;;;;25.40;11.15;;;;;;;;;;6338048;22;20027;-82
2023/01/03 01:22:42;;;;;;;23.35;10.20;;;;;;;;;;6338391;22;20036;-82
2023/01/03 01:25:09;;;;;;;24.73;10.38;;;;;;;;;;6337454;22;20046;-82
2023/01/03 01:27:35;;;;;;;24.80;10.38;;;;;;;;;;6338079;22;20019;-82
2023/01/03 01:30:02;;;;;;;21.20;10.35;;;;;;;;;;6339797;22;20023;-83
2023/01/03 01:32:29;;;;;;;23.90;9.48;;;;;;;;;;6311307;22;20106;-82
2023/01/03 01:34:55;;;;;;;27.48;9.95;;;;;;;;;;6337488;22;20106;-83
2023/01/03 01:37:22;;;;;;;22.73;9.68;;;;;;;;;;6338539;22;20508;-83
2023/01/03 01:39:48;;;;;;;21.67;9.13;;;;;;;;;;6338376;22;20019;-83
2023/01/03 01:45:01;;;;;;;21.58;9.60;;;;;;;;;;6338672;22;20029;-82
2023/01/03 01:47:46;;;;;;;21.63;9.93;;;;;;;;;;6338381;22;20025;-82
2023/01/03 01:50:45;;;;;;;23.45;10.07;;;;;;;;;;6338818;22;20031;-82
2023/01/03 01:53:14;;;;;;;25.55;11.05;;;;;;;;;;6270068;22;20073;-82
2023/01/03 01:55:51;;;;;;;25.13;10.70;;;;;;;;;;6338966;22;20027;-83
2023/01/03 01:58:19;;;;;;;27.08;11.48;;;;;;;;;;6338674;22;20035;-82
2023/01/03 02:00:46;;;;;;;28.45;12.18;;;;;;;;;;6337884;22;20113;-83
2023/01/03 02:03:12;;;;;;;24.50;11.43;;;;;;;;;;6312581;22;20071;-82
2023/01/03 02:05:41;;;;;;;22.55;11.32;;;;;;;;;;6339257;22;20034;-82
2023/01/03 02:08:07;;;;;;;21.25;10.10;;;;;;;;;;6338712;22;20487;-82
2023/01/03 02:10:43;;;;;;;27.23;11.00;;;;;;;;;;6337791;22;20034;-82
2023/01/03 02:13:28;;;;;;;26.63;11.23;;;;;;;;;;6339929;22;20066;-82
2023/01/03 02:16:13;;;;;;;26.33;10.70;;;;;;;;;;6340398;22;20024;-82
2023/01/03 02:18:53;;;;;;;25.17;11.57;;;;;;;;;;6340340;22;20076;-83
2023/01/03 02:21:19;;;;;;;25.75;12.00;;;;;;;;;;6312102;22;20661;-82
2023/01/03 02:24:06;;;;;;;47.10;12.93;;;;;;;;;;6338454;22;20027;-82
2023/01/03 02:26:51;;;;;;;67.93;14.50;;;;;;;;;;6338860;22;20486;-83
2023/01/03 02:29:24;;;;;;;272.75;23.20;;;;;;;;;;6340066;22;20019;-83
2023/01/03 02:32:00;;;;;;;95.78;15.93;;;;;;;;;;6338778;22;20023;-82
2023/01/03 02:34:31;;;;;;;89.13;16.10;;;;;;;;;;6338554;22;20055;-82
2023/01/03 02:37:09;;;;;;;76.47;15.48;;;;;;;;;;6338035;22;20023;-82
2023/01/03 02:39:51;;;;;;;111.72;17.55;;;;;;;;;;6339983;22;21028;-82
2023/01/03 02:45:19;;;;;;;374.30;29.67;;;;;;;;;;6338496;22;20109;-82
2023/01/03 02:47:53;;;;;;;119.80;16.35;;;;;;;;;;6338981;22;20053;-82
2023/01/03 02:50:22;;;;;;;181.50;21.63;;;;;;;;;;6339522;22;20128;-82
2023/01/03 02:52:50;;;;;;;138.20;18.38;;;;;;;;;;6338730;22;20011;-82
2023/01/03 02:55:18;;;;;;;143.60;18.77;;;;;;;;;;6338489;22;20383;-82
2023/01/03 02:57:48;;;;;;;159.52;19.55;;;;;;;;;;6337858;22;20035;-82
2023/01/03 03:00:16;;;;;;;132.23;16.43;;;;;;;;;;6338557;22;20450;-82
2023/01/03 03:02:48;;;;;;;94.00;17.00;;;;;;;;;;6338117;22;20023;-82
2023/01/03 03:05:18;;;;;;;144.07;16.98;;;;;;;;;;6338708;22;20460;-82
2023/01/03 03:07:45;;;;;;;132.27;17.48;;;;;;;;;;6337941;22;20023;-82
2023/01/03 03:13:12;;;;;;;89.85;15.88;;;;;;;;;;6339136;22;20023;-83
2023/01/03 03:15:47;;;;;;;78.10;17.42;;;;;;;;;;6311998;22;20023;-83
2023/01/03 03:18:15;;;;;;;108.07;18.38;;;;;;;;;;6337822;22;20023;-82
2023/01/03 03:26:34;;;;;;;66.03;18.00;;;;;;;;;;6338512;22;20093;-82
2023/01/03 03:29:12;;;;;;;70.82;17.58;;;;;;;;;;6339225;22;20081;-82
2023/01/03 03:31:40;;;;;;;66.80;18.23;;;;;;;;;;6339244;22;20030;-82
2023/01/03 03:34:06;;;;;;;58.38;18.15;;;;;;;;;;6338750;22;20035;-82
2023/01/03 03:36:59;;;;;;;75.95;19.33;;;;;;;;;;6338546;22;20526;-82
2023/01/03 03:45:27;;;;;;;61.25;19.58;;;;;;;;;;6339818;22;20028;-82
2023/01/03 03:48:00;;;;;;;69.90;19.05;;;;;;;;;;6338908;22;20027;-82
2023/01/03 03:50:31;;;;;;;74.18;19.90;;;;;;;;;;6338853;22;20058;-82
2023/01/03 03:52:59;;;;;;;78.93;20.30;;;;;;;;;;6338251;22;20114;-83
2023/01/03 03:55:48;;;;;;;81.80;19.95;;;;;;;;;;6338136;22;20054;-82
2023/01/03 03:58:17;;;;;;;151.75;22.63;;;;;;;;;;6338268;22;20447;-82
2023/01/03 04:00:44;;;;;;;105.35;21.50;;;;;;;;;;6337495;22;20043;-82
2023/01/03 04:03:11;;;;;;;102.50;20.20;;;;;;;;;;6308587;22;20102;-82
2023/01/03 04:05:44;;;;;;;149.88;21.52;;;;;;;;;;6310023;22;20023;-83
2023/01/03 04:08:10;;;;;;;134.48;21.80;;;;;;;;;;6338452;22;20474;-82
2023/01/03 04:10:36;;;;;;;146.48;22.55;;;;;;;;;;6339724;22;20019;-83
2023/01/03 04:13:04;;;;;;;199.10;24.60;;;;;;;;;;6338179;22;20037;-83
2023/01/03 04:15:30;;;;;;;179.10;22.08;;;;;;;;;;6338201;22;20481;-82
2023/01/03 04:17:57;;;;;;;225.57;24.42;;;;;;;;;;6312187;22;20027;-82
2023/01/03 04:20:23;;;;;;;138.32;21.25;;;;;;;;;;6312261;22;20110;-82
2023/01/03 04:22:49;;;;;;;138.55;22.48;;;;;;;;;;6311332;22;20063;-82
2023/01/03 04:25:16;;;;;;;180.43;25.65;;;;;;;;;;6339365;22;20023;-82
2023/01/03 04:27:42;;;;;;;123.32;21.80;;;;;;;;;;6339932;22;20015;-82
2023/01/03 04:30:10;;;;;;;135.32;20.20;;;;;;;;;;6340169;22;20034;-83
2023/01/03 04:32:37;;;;;;;112.03;20.58;;;;;;;;;;6312586;22;20023;-82
2023/01/03 04:35:03;;;;;;;86.43;20.80;;;;;;;;;;6338881;22;20024;-82
2023/01/03 04:37:29;;;;;;;81.32;21.13;;;;;;;;;;6312510;22;20046;-82
2023/01/03 04:39:56;;;;;;;81.68;19.65;;;;;;;;;;6340041;22;20473;-83
2023/01/03 04:45:27;;;;;;;129.25;20.98;;;;;;;;;;6212225;23;20031;-82
2023/01/03 04:47:53;;;;;;;64.10;20.65;;;;;;;;;;6212909;23;20025;-82
2023/01/03 04:50:20;;;;;;;82.85;21.25;;;;;;;;;;6272224;22;20007;-82
2023/01/03 04:52:46;;;;;;;54.67;20.38;;;;;;;;;;6312683;22;20030;-83
2023/01/03 04:55:12;;;;;;;79.85;22.88;;;;;;;;;;6339934;22;20069;-82
2023/01/03 04:57:42;;;;;;;104.15;24.92;;;;;;;;;;6339009;22;20030;-82
2023/01/03 05:00:11;;;;;;;81.72;25.27;;;;;;;;;;6311933;22;20061;-83
2023/01/03 05:02:38;;;;;;;89.65;25.88;;;;;;;;;;6341637;22;20023;-82
2023/01/03 05:05:05;;;;;;;74.63;24.98;;;;;;;;;;6338929;22;20019;-82
2023/01/03 05:07:31;;;;;;;68.75;25.63;;;;;;;;;;6311779;22;20019;-82
2023/01/03 05:09:58;;;;;;;69.15;25.42;;;;;;;;;;6311739;22;20439;-82
2023/01/03 05:12:25;;;;;;;65.43;25.55;;;;;;;;;;6339200;22;20480;-82
2023/01/03 05:14:51;;;;;;;66.28;25.13;;;;;;;;;;6312221;22;20062;-82
2023/01/03 05:17:19;;;;;;;65.60;24.17;;;;;;;;;;6339684;22;20034;-82
2023/01/03 05:28:00;;;;;;;59.70;22.30;;;;;;;;;;6339184;22;20095;-82
2023/01/03 05:30:27;;;;;;;58.75;24.73;;;;;;;;;;6339145;22;20032;-82
2023/01/03 05:32:53;;;;;;;63.83;23.33;;;;;;;;;;6338995;22;20017;-82
2023/01/03 05:35:20;;;;;;;66.60;22.77;;;;;;;;;;6338750;22;20030;-82
2023/01/03 05:37:46;;;;;;;54.88;22.38;;;;;;;;;;6311834;22;20025;-82
2023/01/03 05:40:12;;;;;;;52.03;20.95;;;;;;;;;;6338719;22;20098;-82
2023/01/03 05:42:39;;;;;;;49.03;20.83;;;;;;;;;;6338856;22;20031;-82
2023/01/03 05:45:06;;;;;;;52.10;21.38;;;;;;;;;;6339067;22;20024;-82
2023/01/03 05:47:32;;;;;;;48.13;20.75;;;;;;;;;;6339170;22;20023;-82
2023/01/03 05:49:58;;;;;;;42.08;19.35;;;;;;;;;;6339416;22;20461;-81
2023/01/03 05:52:25;;;;;;;42.65;19.13;;;;;;;;;;6339383;22;20030;-81
2023/01/03 05:54:51;;;;;;;40.85;19.02;;;;;;;;;;6339297;22;20031;-82
2023/01/03 05:57:17;;;;;;;38.53;18.33;;;;;;;;;;6310896;22;20058;-82
2023/01/03 05:59:44;;;;;;;40.55;18.38;;;;;;;;;;6312177;22;20102;-82
2023/01/03 06:02:10;;;;;;;39.00;17.55;;;;;;;;;;6339065;22;20106;-82
2023/01/03 06:04:37;;;;;;;33.95;16.60;;;;;;;;;;6339270;22;20106;-82
2023/01/03 06:07:03;;;;;;;36.38;16.45;;;;;;;;;;6338497;22;20057;-81
2023/01/03 06:09:30;;;;;;;33.95;17.02;;;;;;;;;;6339719;22;20023;-81
2023/01/03 06:11:56;;;;;;;31.75;16.10;;;;;;;;;;6338962;22;20027;-82
2023/01/03 06:14:23;;;;;;;36.72;17.20;;;;;;;;;;6338467;22;20047;-82
2023/01/03 06:19:34;;;;;;;33.35;16.42;;;;;;;;;;6339722;22;20907;-82
2023/01/03 06:22:01;;;;;;;36.88;16.90;;;;;;;;;;6311694;22;20027;-82
2023/01/03 06:24:35;;;;;;;36.53;16.92;;;;;;;;;;6337343;22;20047;-82
2023/01/03 06:27:02;;;;;;;36.45;16.75;;;;;;;;;;6338984;22;20723;-82
2023/01/03 06:29:28;;;;;;;33.10;16.63;;;;;;;;;;6338507;22;20476;-82
2023/01/03 06:31:55;;;;;;;36.90;16.63;;;;;;;;;;6338815;22;20034;-82
2023/01/03 06:34:21;;;;;;;37.58;17.85;;;;;;;;;;6338467;22;20100;-82
2023/01/03 06:36:47;;;;;;;37.72;17.08;;;;;;;;;;6311711;22;20027;-82
2023/01/03 06:39:14;;;;;;;40.55;18.05;;;;;;;;;;6339570;22;20514;-82
2023/01/03 06:41:40;;;;;;;37.75;17.42;;;;;;;;;;6339230;22;20081;-82
2023/01/03 06:44:08;;;;;;;32.97;16.30;;;;;;;;;;6339444;22;20557;-82
2023/01/03 06:54:52;;;;;;;37.28;16.13;;;;;;;;;;6337181;22;20133;-82
2023/01/03 06:57:18;;;;;;;32.05;16.40;;;;;;;;;;6337366;22;20057;-82
2023/01/03 06:59:52;;;;;;;37.05;16.10;;;;;;;;;;6311491;22;20031;-82
2023/01/03 07:02:19;;;;;;;32.30;16.45;;;;;;;;;;6311281;22;20054;-82
2023/01/03 07:04:46;;;;;;;32.05;15.95;;;;;;;;;;6337199;22;20031;-82
2023/01/03 07:07:12;;;;;;;40.95;16.65;;;;;;;;;;6337704;22;20026;-82
2023/01/03 07:09:38;;;;;;;39.67;16.38;;;;;;;;;;6337141;22;20030;-82
2023/01/03 07:14:50;;;;;;;32.97;17.35;;;;;;;;;;6338170;22;20019;-81
2023/01/03 07:17:16;;;;;;;33.85;16.25;;;;;;;;;;6338026;22;20024;-82
2023/01/03 07:19:43;;;;;;;35.45;15.20;;;;;;;;;;6310612;22;20034;-82
2023/01/03 07:22:09;;;;;;;31.63;14.25;;;;;;;;;;6337970;22;20537;-81
2023/01/03 07:24:35;;;;;;;35.28;15.43;;;;;;;;;;6338439;22;20024;-82
2023/01/03 07:27:04;;;;;;;35.63;15.23;;;;;;;;;;6338581;22;20026;-82
2023/01/03 07:29:31;;;;;;;32.83;14.80;;;;;;;;;;6337371;22;20028;-81
2023/01/03 07:31:57;;;;;;;29.15;14.52;;;;;;;;;;6337991;22;20499;-82
2023/01/03 07:34:24;;;;;;;34.72;15.15;;;;;;;;;;6310746;22;20110;-82
2023/01/03 07:36:50;;;;;;;29.88;13.25;;;;;;;;;;6337981;22;20027;-82
2023/01/03 07:39:16;;;;;;;39.95;15.45;;;;;;;;;;6338193;22;20024;-83
2023/01/03 07:44:28;;;;;;;49.03;16.63;;;;;;;;;;6337747;22;20018;-82
2023/01/03 07:46:54;;;;;;;39.15;15.88;;;;;;;;;;6337507;22;20055;-83
2023/01/03 07:49:21;;;;;;;35.40;14.93;;;;;;;;;;6337620;22;20058;-84
2023/01/03 07:51:47;;;;;;;43.28;15.98;;;;;;;;;;6337283;22;20094;-84
2023/01/03 07:54:13;;;;;;;36.08;15.48;;;;;;;;;;6311685;22;20090;-84
2023/01/03 07:56:40;;;;;;;38.47;15.50;;;;;;;;;;6338166;22;20031;-83
2023/01/03 07:59:07;;;;;;;36.97;14.63;;;;;;;;;;6311567;22;20027;-83
2023/01/03 08:01:41;;;;;;;40.40;14.80;;;;;;;;;;6339481;22;20023;-84
2023/01/03 08:04:07;;;;;;;53.95;15.82;;;;;;;;;;6337862;22;20468;-81
2023/01/03 08:06:34;;;;;;;33.97;14.38;;;;;;;;;;6310183;22;20019;-81
2023/01/03 08:14:33;;;;;;;37.45;14.70;;;;;;;;;;6338174;22;20019;-83
2023/01/03 08:16:59;;;;;;;41.97;15.32;;;;;;;;;;6338492;22;20029;-83
2023/01/03 08:19:25;;;;;;;43.53;15.32;;;;;;;;;;6339317;22;20019;-83
2023/01/03 08:21:52;;;;;;;44.75;15.43;;;;;;;;;;6338274;22;20023;-83
2023/01/03 08:24:18;;;;;;;45.90;15.98;;;;;;;;;;6338997;22;20027;-83
2023/01/03 08:26:44;;;;;;;36.67;13.75;;;;;;;;;;6311314;22;20033;-82
2023/01/03 08:29:11;;;;;;;38.58;14.32;;;;;;;;;;6311071;22;20476;-80
2023/01/03 08:31:39;;;;;;;36.70;14.23;;;;;;;;;;6339008;22;20100;-81
2023/01/03 08:34:07;;;;;;;40.85;15.23;;;;;;;;;;6338452;22;20015;-81
2023/01/03 08:36:47;;;;;;;35.00;13.98;;;;;;;;;;6337987;22;20027;-81
2023/01/03 08:39:15;;;;;;;34.45;14.13;;;;;;;;;;6338625;22;20944;-81
2023/01/03 08:41:46;;;;;;;35.08;13.52;;;;;;;;;;6339278;22;20086;-80
2023/01/03 08:44:13;;;;;;;41.10;14.30;;;;;;;;;;6338899;22;20053;-81
2023/01/03 08:46:44;;;;;;;36.00;13.95;;;;;;;;;;6311369;22;20023;-81
2023/01/03 08:49:11;;;;;;;29.33;12.88;;;;;;;;;;6338873;22;20594;-80
2023/01/03 08:51:38;;;;;;;34.95;13.35;;;;;;;;;;6338224;22;20030;-80
2023/01/03 08:54:04;;;;;;;39.50;15.30;;;;;;;;;;6310904;22;20019;-80
2023/01/03 08:56:31;;;;;;;38.63;13.32;;;;;;;;;;6339003;22;20520;-80
2023/01/03 08:58:57;;;;;;;37.65;13.90;;;;;;;;;;6338771;22;20023;-80
2023/01/03 09:01:24;;;;;;;34.22;13.02;;;;;;;;;;6338157;22;20023;-80
2023/01/03 09:03:50;;;;;;;27.02;12.88;;;;;;;;;;6309211;22;20073;-81
2023/01/03 09:06:17;;;;;;;33.05;13.07;;;;;;;;;;6337504;22;20038;-81
2023/01/03 09:08:44;;;;;;;31.95;12.40;;;;;;;;;;6338133;22;20793;-82
2023/01/03 09:11:10;;;;;;;35.83;13.55;;;;;;;;;;6338159;22;20050;-82
2023/01/03 09:13:37;;;;;;;43.97;13.55;;;;;;;;;;6337840;22;20495;-82
2023/01/03 09:16:05;;;;;;;31.52;13.60;;;;;;;;;;6337776;22;20043;-82
2023/01/03 09:18:34;;;;;;;38.75;14.45;;;;;;;;;;6336785;22;20029;-83
2023/01/03 09:21:02;;;;;;;37.58;15.65;;;;;;;;;;6337049;22;20023;-81
2023/01/03 09:23:28;;;;;;;41.83;15.25;;;;;;;;;;6335917;22;20534;-80
2023/01/03 09:25:55;;;;;;;40.75;15.30;;;;;;;;;;6338337;22;20066;-81
2023/01/03 09:28:21;;;;;;;44.45;14.52;;;;;;;;;;6337425;22;20022;-82
2023/01/03 09:30:48;;;;;;;48.05;15.38;;;;;;;;;;6338797;22;20011;-82
2023/01/03 09:33:14;;;;;;;43.03;15.38;;;;;;;;;;6337679;22;20030;-82
2023/01/03 09:35:40;;;;;;;46.63;15.50;;;;;;;;;;6338063;22;20916;-82
2023/01/03 09:38:07;;;;;;;49.33;15.63;;;;;;;;;;6337773;22;20033;-82
2023/01/03 09:40:40;;;;;;;52.72;16.00;;;;;;;;;;6337117;22;20477;-82
2023/01/03 09:43:12;;;;;;;42.40;14.98;;;;;;;;;;6337097;22;20022;-81
2023/01/03 09:45:42;;;;;;;53.63;16.95;;;;;;;;;;6337878;22;20020;-82
2023/01/03 09:48:13;;;;;;;42.92;15.32;;;;;;;;;;6338469;22;20514;-82
2023/01/03 09:50:40;;;;;;;45.70;16.35;;;;;;;;;;6338311;22;20460;-81
2023/01/03 10:05:06;;;;;;;41.50;15.95;;;;;;;;;;6337923;22;20096;-81
2023/01/03 10:07:45;;;;;;;46.67;15.90;;;;;;;;;;6338694;22;20020;-82
2023/01/03 10:10:18;;;;;;;44.97;16.15;;;;;;;;;;6311788;22;20079;-81
2023/01/03 10:12:59;;;;;;;53.65;17.35;;;;;;;;;;6310819;22;20050;-80
2023/01/03 10:15:26;;;;;;;49.20;15.75;;;;;;;;;;6310981;22;20019;-82
2023/01/03 10:17:52;;;;;;;50.10;17.30;;;;;;;;;;6310091;22;20019;-80
2023/01/03 10:20:42;;;;;;;52.97;16.58;;;;;;;;;;6338235;22;20565;-81
2023/01/03 10:23:10;;;;;;;46.92;15.90;;;;;;;;;;6338164;22;20023;-82
2023/01/03 10:25:37;;;;;;;49.38;14.90;;;;;;;;;;6311358;22;20043;-80
2023/01/03 10:28:13;;;;;;;47.05;15.98;;;;;;;;;;6338837;22;20462;-82
2023/01/03 10:30:59;;;;;;;49.88;16.10;;;;;;;;;;6339024;22;20035;-81
2023/01/03 10:33:36;;;;;;;45.47;16.27;;;;;;;;;;6338124;22;20066;-82
2023/01/03 10:36:03;;;;;;;45.20;16.00;;;;;;;;;;6337737;22;20023;-83
2023/01/03 10:38:29;;;;;;;46.15;16.92;;;;;;;;;;6312185;22;20027;-81
2023/01/03 10:40:58;;;;;;;51.63;16.40;;;;;;;;;;6310629;22;20046;-82
2023/01/03 10:43:36;;;;;;;51.33;15.65;;;;;;;;;;6338467;22;20070;-84
2023/01/03 10:46:04;;;;;;;44.88;15.52;;;;;;;;;;6340318;22;20024;-87
2023/01/03 10:48:38;;;;;;;40.42;14.40;;;;;;;;;;6339520;22;20049;-81
2023/01/03 10:51:27;;;;;;;46.88;16.27;;;;;;;;;;6339662;22;20022;-81
2023/01/03 10:53:55;;;;;;;45.47;15.75;;;;;;;;;;6310672;22;20011;-82
2023/01/03 10:56:22;;;;;;;57.22;17.00;;;;;;;;;;6337732;22;20062;-83
2023/01/03 10:59:08;;;;;;;46.67;16.25;;;;;;;;;;6337225;22;20470;-81
2023/01/03 11:01:34;;;;;;;48.55;15.75;;;;;;;;;;6309837;22;20462;-81
2023/01/03 11:04:11;;;;;;;42.60;16.60;;;;;;;;;;6309789;22;20019;-81
2023/01/03 11:06:57;;;;;;;46.65;16.27;;;;;;;;;;6310849;22;20047;-83
2023/01/03 11:09:26;;;;;;;49.85;16.20;;;;;;;;;;6338699;22;20031;-82
2023/01/03 11:11:54;;;;;;;44.53;15.07;;;;;;;;;;6338798;22;20023;-80
2023/01/03 11:14:25;;;;;;;41.33;14.98;;;;;;;;;;6337195;22;20062;-83
2023/01/03 11:16:51;;;;;;;;;;;;;;;;;;6338369;22;20019;-81
2023/01/03 11:19:17;;;;;;;42.05;15.07;;;;;;;;;;6335644;22;46179;-81
2023/01/03 11:21:44;;;;;;;42.97;15.35;;;;;;;;;;6310175;22;20027;-81
2023/01/03 11:24:26;;;;;;;34.42;14.23;;;;;;;;;;6339471;22;20071;-82
2023/01/03 11:27:08;;;;;;;37.40;13.80;;;;;;;;;;6336513;22;20025;-84
2023/01/03 11:29:47;;;;;;;37.35;13.40;;;;;;;;;;6338916;22;20061;-80
2023/01/03 11:32:23;;;;;;;38.58;13.60;;;;;;;;;;6339488;22;20027;-81
2023/01/03 11:35:08;;;;;;;35.65;15.25;;;;;;;;;;6312050;22;20027;-80
2023/01/03 11:37:49;;;;;;;42.97;15.10;;;;;;;;;;6340309;22;20027;-80
2023/01/03 11:40:21;;;;;;;42.55;15.43;;;;;;;;;;6312006;22;20045;-83
2023/01/03 11:42:53;;;;;;;35.92;15.48;;;;;;;;;;6311261;22;20549;-81
2023/01/03 11:45:20;;;;;;;36.47;14.30;;;;;;;;;;6338700;22;20015;-83
2023/01/03 11:47:46;;;;;;;44.30;14.48;;;;;;;;;;6338735;22;20028;-81
2023/01/03 11:50:13;;;;;;;40.40;14.93;;;;;;;;;;6339209;22;20059;-82
2023/01/03 11:52:58;;;;;;;37.70;14.82;;;;;;;;;;6339117;22;20019;-81
2023/01/03 11:55:33;;;;;;;43.90;14.68;;;;;;;;;;6339424;22;20026;-81
2023/01/03 11:58:15;;;;;;;41.22;15.15;;;;;;;;;;6338474;22;20077;-82
2023/01/03 12:00:42;;;;;;;38.63;15.00;;;;;;;;;;6311014;22;20019;-82
2023/01/03 12:03:15;;;;;;;46.42;16.48;;;;;;;;;;6338649;22;20024;-82
2023/01/03 12:05:41;;;;;;;36.08;15.05;;;;;;;;;;6339562;22;20125;-81
2023/01/03 12:08:11;;;;;;;37.08;14.48;;;;;;;;;;6312084;22;20042;-82
2023/01/03 12:10:37;;;;;;;40.22;15.35;;;;;;;;;;6339444;22;20034;-81
2023/01/03 12:13:13;;;;;;;37.03;15.18;;;;;;;;;;6338648;22;20055;-80
2023/01/03 12:15:43;;;;;;;39.33;14.48;;;;;;;;;;6338934;22;20074;-82
2023/01/03 12:18:31;;;;;;;31.92;13.95;;;;;;;;;;6311611;22;20832;-83
2023/01/03 12:21:01;;;;;;;32.38;13.45;;;;;;;;;;6312042;22;20024;-84
2023/01/03 12:23:30;;;;;;;33.07;13.57;;;;;;;;;;6338610;22;20024;-81
2023/01/03 12:25:59;;;;;;;34.50;14.00;;;;;;;;;;6339277;22;20023;-81
2023/01/03 12:28:49;;;;;;;32.47;13.77;;;;;;;;;;6339258;22;20023;-82
2023/01/03 12:31:18;;;;;;;32.38;13.38;;;;;;;;;;6254079;22;20030;-80
2023/01/03 12:34:04;;;;;;;39.67;14.27;;;;;;;;;;6339189;22;20467;-81
2023/01/03 12:36:36;;;;;;;30.30;13.48;;;;;;;;;;6311477;22;20019;-81
2023/01/03 12:39:22;;;;;;;32.45;13.25;;;;;;;;;;6337920;22;20502;-82
2023/01/03 12:42:00;;;;;;;29.90;12.13;;;;;;;;;;6339727;22;20459;-80
2023/01/03 12:44:36;;;;;;;31.75;13.23;;;;;;;;;;6310790;22;20802;-81
2023/01/03 12:47:04;;;;;;;25.40;11.40;;;;;;;;;;6338772;22;20026;-81
2023/01/03 12:49:36;;;;;;;25.48;11.63;;;;;;;;;;6338969;22;20023;-81
2023/01/03 12:52:03;;;;;;;30.83;12.00;;;;;;;;;;6337603;22;20023;-81
2023/01/03 12:54:37;;;;;;;21.90;10.85;;;;;;;;;;6338022;22;20007;-84
2023/01/03 12:57:16;;;;;;;23.52;10.63;;;;;;;;;;6309702;22;20101;-82
2023/01/03 12:59:59;;;;;;;22.27;9.50;;;;;;;;;;6310992;22;20007;-82
2023/01/03 13:02:31;;;;;;;21.30;9.55;;;;;;;;;;6337686;22;20015;-81
2023/01/03 13:05:18;;;;;;;22.33;8.68;;;;;;;;;;6338933;22;20585;-81
2023/01/03 13:07:52;;;;;;;20.50;9.02;;;;;;;;;;6316231;22;20019;-82
2023/01/03 13:10:19;;;;;;;16.25;7.78;;;;;;;;;;6311205;22;20047;-81
2023/01/03 13:12:49;;;;;;;16.00;7.30;;;;;;;;;;6339224;22;20057;-81
2023/01/03 13:15:24;;;;;;;17.02;7.10;;;;;;;;;;6339299;22;20027;-83
2023/01/03 13:18:19;;;;;;;18.77;6.45;;;;;;;;;;6338207;22;20084;-80
2023/01/03 13:20:47;;;;;;;14.45;6.40;;;;;;;;;;6337927;22;20098;-80
2023/01/03 13:23:35;;;;;;;14.00;6.35;;;;;;;;;;6311273;22;20019;-82
2023/01/03 13:26:03;;;;;;;12.98;5.50;;;;;;;;;;6310836;22;20027;-81
2023/01/03 13:28:30;;;;;;;14.73;5.57;;;;;;;;;;6340014;22;20035;-81
2023/01/03 13:31:18;;;;;;;12.43;5.38;;;;;;;;;;6338100;22;20106;-80
2023/01/03 13:33:47;;;;;;;12.70;5.72;;;;;;;;;;6338756;22;20069;-82
2023/01/03 13:36:17;;;;;;;14.48;6.10;;;;;;;;;;6337781;22;20085;-82
2023/01/03 13:38:43;;;;;;;11.60;5.93;;;;;;;;;;6339179;22;20023;-80
2023/01/03 13:41:29;;;;;;;14.63;5.95;;;;;;;;;;6339207;22;20011;-82
2023/01/03 13:44:05;;;;;;;11.45;5.50;;;;;;;;;;6338223;22;20530;-80
2023/01/03 13:46:32;;;;;;;13.10;5.93;;;;;;;;;;6337782;22;20471;-82
2023/01/03 13:49:03;;;;;;;12.63;5.47;;;;;;;;;;6337910;22;20063;-83
2023/01/03 13:51:29;;;;;;;12.13;5.72;;;;;;;;;;6340994;22;20030;-81
2023/01/03 13:53:59;;;;;;;11.48;5.10;;;;;;;;;;6311421;22;20031;-82
2023/01/03 13:56:30;;;;;;;11.00;5.57;;;;;;;;;;6338832;22;20050;-80
2023/01/03 13:59:07;;;;;;;10.68;5.35;;;;;;;;;;6338831;22;20023;-80
2023/01/03 14:01:53;;;;;;;9.20;5.38;;;;;;;;;;6310418;22;20024;-80
2023/01/03 14:04:46;;;;;;;12.82;4.93;;;;;;;;;;6338209;22;20077;-82
2023/01/03 14:07:12;;;;;;;13.68;6.00;;;;;;;;;;6291046;22;20333;-79
2023/01/03 14:09:57;;;;;;;11.02;5.57;;;;;;;;;;6336980;22;20061;-79
2023/01/03 14:12:26;;;;;;;10.48;5.75;;;;;;;;;;6338476;22;20034;-83
2023/01/03 14:14:54;;;;;;;13.20;5.47;;;;;;;;;;6338192;22;20053;-81
2023/01/03 14:17:29;;;;;;;13.57;5.82;;;;;;;;;;6339301;22;20024;-80
2023/01/03 14:19:57;;;;;;;11.75;5.22;;;;;;;;;;6339132;22;20030;-80
2023/01/03 14:22:28;;;;;;;14.00;5.60;;;;;;;;;;6339110;22;20023;-80
2023/01/03 14:24:57;;;;;;;9.00;4.45;;;;;;;;;;6338984;22;20086;-80
2023/01/03 14:27:34;;;;;;;9.55;5.40;;;;;;;;;;6339007;22;20015;-84
2023/01/03 14:30:00;;;;;;;10.85;5.20;;;;;;;;;;6338813;22;20034;-82
2023/01/03 14:32:28;;;;;;;11.68;4.82;;;;;;;;;;6339464;22;20023;-81
2023/01/03 14:34:59;;;;;;;12.38;5.35;;;;;;;;;;6340962;22;20652;-81
2023/01/03 14:37:26;;;;;;;11.07;5.63;;;;;;;;;;6338325;22;20019;-81
2023/01/03 14:39:55;;;;;;;13.38;6.05;;;;;;;;;;6310843;22;20027;-79
2023/01/03 14:42:22;;;;;;;10.07;5.53;;;;;;;;;;6340011;22;20059;-81
2023/01/03 14:45:03;;;;;;;13.63;5.75;;;;;;;;;;6339871;22;20037;-80
2023/01/03 14:47:34;;;;;;;12.88;6.43;;;;;;;;;;6339223;22;20315;-80
2023/01/03 14:50:01;;;;;;;12.20;5.97;;;;;;;;;;6310092;22;20027;-82
2023/01/03 14:52:29;;;;;;;12.88;6.60;;;;;;;;;;6337404;22;20023;-82
2023/01/03 14:54:57;;;;;;;12.23;6.45;;;;;;;;;;6338652;22;20051;-82
2023/01/03 14:57:29;;;;;;;15.70;7.70;;;;;;;;;;6339760;22;20023;-82
2023/01/03 14:59:57;;;;;;;12.55;6.30;;;;;;;;;;6340379;22;20092;-81
2023/01/03 15:02:24;;;;;;;14.25;6.03;;;;;;;;;;6337162;22;20007;-82
2023/01/03 15:04:52;;;;;;;12.95;6.28;;;;;;;;;;6310806;22;20415;-83
2023/01/03 15:07:23;;;;;;;12.05;6.15;;;;;;;;;;6310598;22;20019;-83
2023/01/03 15:10:00;;;;;;;13.60;6.45;;;;;;;;;;6338107;22;20528;-82
2023/01/03 15:12:27;;;;;;;17.27;6.00;;;;;;;;;;6339602;22;20034;-84
2023/01/03 15:14:53;;;;;;;17.02;5.78;;;;;;;;;;6338138;22;20498;-84
2023/01/03 15:17:22;;;;;;;11.70;5.15;;;;;;;;;;6338898;22;20027;-82
2023/01/03 15:19:52;;;;;;;14.88;5.13;;;;;;;;;;6339182;22;20754;-81
2023/01/03 15:22:21;;;;;;;13.75;5.40;;;;;;;;;;6337772;22;20517;-81
2023/01/03 15:24:49;;;;;;;9.30;5.20;;;;;;;;;;6337815;22;20518;-82
2023/01/03 15:27:34;;;;;;;15.07;5.15;;;;;;;;;;6336775;22;20027;-83
2023/01/03 15:30:12;;;;;;;12.90;5.10;;;;;;;;;;6309714;22;20027;-83
2023/01/03 15:32:44;;;;;;;10.38;4.78;;;;;;;;;;6338964;22;20027;-83
2023/01/03 15:35:20;;;;;;;14.20;5.38;;;;;;;;;;6339546;22;20870;-83
2023/01/03 15:37:51;;;;;;;12.20;5.03;;;;;;;;;;6310061;22;20681;-83
2023/01/03 15:40:17;;;;;;;12.55;4.65;;;;;;;;;;6338806;22;20023;-83
2023/01/03 15:45:33;;;;;;;10.23;4.72;;;;;;;;;;6340410;22;20903;-83
2023/01/03 15:47:59;;;;;;;;;;;;;;;;;;6340686;22;20016;-82
2023/01/03 15:50:36;;;;;;;12.95;4.90;;;;;;;;;;6339767;22;47281;-83